Welcome to Northern Hawkes Bay. New Zealand.
PWS Header
      nz Flag



Hit Counter


W3C Valid W3C Valid logo


    Wairoa

Select any of the Stations below to visit their websites.










Historic Data from Weather Underground
Select the location of interest below. Wairoa is the default. Please have patience, this Data is slow to load in.
Northern Hawkes Bay Historical Data
Daily Summary for May 23, 2017 Units:  Metric    English   Both
« Previous Day
Next Day »
Daily Weekly Monthly Yearly Custom
  High: Low: Average:
Temperature: 19.9 °C 0.5 °C 8.9 °C
Dew Point: 7.8 °C -0.1 °C 4.6 °C
Humidity: 98% 44% 76%
Wind Speed: 14.8km/h 0.0km/h 6.2km/h
Wind Gust: 27.0km/h - -
Wind- - WNW
Pressure: 1026.6 hPa 1018.2 hPa -
Precipitation: 0.0 mm    
Historical Graphs
 
 
Tabular Data for May 23, 2017
Time Temperature Dew Point Pressure Wind Wind Speed Wind Gust Humidity Rainfall Rate (Hourly) solar
00:04 4.0 °C 3.7 °C 1026.6 hPa North 7.2 km/h 15.8 km/h 98% 0.0 mm 0 W/m2
00:10 4.0 °C 3.7 °C 1026.3 hPa North 6.1 km/h 15.8 km/h 98% 0.0 mm 0 W/m2
00:16 4.0 °C 3.7 °C 1026.3 hPa NNW 11.1 km/h 14.8 km/h 98% 0.0 mm 0 W/m2
00:21 4.0 °C 3.7 °C 1026.6 hPa NNW 8.7 km/h 19.5 km/h 98% 0.0 mm 0 W/m2
00:26 4.1 °C 3.8 °C 1026.3 hPa North 12.2 km/h 19.5 km/h 98% 0.0 mm 0 W/m2
00:31 4.2 °C 3.8 °C 1026.3 hPa NNW 12.2 km/h 19.5 km/h 97% 0.0 mm 0 W/m2
00:36 4.2 °C 3.8 °C 1026.3 hPa NNW 8.7 km/h 18.3 km/h 97% 0.0 mm 0 W/m2
00:41 4.8 °C 4.4 °C 1026.3 hPa NNW 5.0 km/h 17.2 km/h 97% 0.0 mm 0 W/m2
00:46 4.0 °C 3.4 °C 1026.0 hPa NNW 9.7 km/h 14.8 km/h 96% 0.0 mm 0 W/m2
00:51 4.0 °C 3.4 °C 1026.3 hPa NNW 8.7 km/h 14.8 km/h 96% 0.0 mm 0 W/m2
00:56 3.9 °C 3.4 °C 1026.3 hPa NNW 6.1 km/h 13.4 km/h 97% 0.0 mm 0 W/m2
01:02 3.7 °C 3.3 °C 1026.3 hPa NNW 6.1 km/h 12.2 km/h 97% 0.0 mm 0 W/m2
01:07 3.6 °C 3.2 °C 1026.0 hPa NNW 6.1 km/h 9.7 km/h 97% 0.0 mm 0 W/m2
01:12 3.4 °C 2.9 °C 1026.0 hPa NNW 5.0 km/h 9.7 km/h 97% 0.0 mm 0 W/m2
01:17 3.4 °C 2.9 °C 1026.0 hPa NNW 5.0 km/h 9.7 km/h 97% 0.0 mm 0 W/m2
01:22 3.2 °C 2.8 °C 1026.0 hPa NW 3.5 km/h 8.7 km/h 97% 0.0 mm 0 W/m2
01:27 3.0 °C 2.6 °C 1026.0 hPa NW 5.0 km/h 8.7 km/h 97% 0.0 mm 0 W/m2
01:32 2.9 °C 1.9 °C 1026.0 hPa NW 2.6 km/h 8.7 km/h 93% 0.0 mm 0 W/m2
01:37 2.4 °C 1.4 °C 1026.0 hPa NNW 5.0 km/h 8.7 km/h 93% 0.0 mm 0 W/m2
01:42 2.7 °C 1.7 °C 1026.0 hPa NW 6.1 km/h 8.7 km/h 93% 0.0 mm 0 W/m2
01:59 2.4 °C 1.4 °C 1026.0 hPa NW 2.6 km/h 7.2 km/h 93% 0.0 mm 0 W/m2
02:04 2.4 °C 1.4 °C 1025.6 hPa NW 5.0 km/h 8.7 km/h 93% 0.0 mm 0 W/m2
02:09 1.7 °C 0.8 °C 1025.6 hPa NW 3.5 km/h 8.7 km/h 94% 0.0 mm 0 W/m2
02:14 2.3 °C 1.4 °C 1025.3 hPa NNW 3.5 km/h 7.2 km/h 94% 0.0 mm 0 W/m2
02:19 2.5 °C 1.6 °C 1025.3 hPa NW 2.6 km/h 7.2 km/h 94% 0.0 mm 0 W/m2
02:24 2.3 °C 1.4 °C 1025.3 hPa WNW 3.5 km/h 7.2 km/h 94% 0.0 mm 0 W/m2
02:29 1.5 °C 0.7 °C 1025.6 hPa WNW 2.6 km/h 7.2 km/h 94% 0.0 mm 0 W/m2
02:34 2.0 °C 1.2 °C 1025.6 hPa NW 5.0 km/h 7.2 km/h 94% 0.0 mm 0 W/m2
02:39 2.0 °C 1.2 °C 1025.3 hPa NNW 2.6 km/h 6.1 km/h 94% 0.0 mm 0 W/m2
02:44 1.9 °C 1.2 °C 1025.3 hPa NNW 2.6 km/h 6.1 km/h 95% 0.0 mm 0 W/m2
02:49 1.9 °C 1.2 °C 1025.3 hPa NNW 1.1 km/h 5.0 km/h 95% 0.0 mm 0 W/m2
02:54 1.9 °C 1.2 °C 1024.9 hPa NNW 3.5 km/h 5.0 km/h 95% 0.0 mm 0 W/m2
02:59 1.9 °C 1.2 °C 1024.9 hPa NW 3.5 km/h 7.2 km/h 95% 0.0 mm 0 W/m2
03:04 1.8 °C 1.1 °C 1024.9 hPa NW 3.5 km/h 7.2 km/h 95% 0.0 mm 0 W/m2
03:09 1.9 °C 1.2 °C 1024.9 hPa WNW 2.6 km/h 5.0 km/h 95% 0.0 mm 0 W/m2
03:14 1.7 °C 1.0 °C 1024.6 hPa WNW 3.5 km/h 5.0 km/h 95% 0.0 mm 0 W/m2
03:19 1.7 °C 1.0 °C 1024.9 hPa NW 3.5 km/h 7.2 km/h 95% 0.0 mm 0 W/m2
03:24 1.7 °C 1.0 °C 1024.6 hPa NW 5.0 km/h 9.7 km/h 95% 0.0 mm 0 W/m2
03:29 1.7 °C 1.1 °C 1024.6 hPa NW 3.5 km/h 9.7 km/h 96% 0.0 mm 0 W/m2
03:34 1.6 °C 1.1 °C 1024.6 hPa NW 5.0 km/h 8.7 km/h 96% 0.0 mm 0 W/m2
03:39 1.7 °C 1.1 °C 1024.6 hPa NW 6.1 km/h 9.7 km/h 96% 0.0 mm 0 W/m2
03:44 1.8 °C 1.2 °C 1024.6 hPa NNW 6.1 km/h 9.7 km/h 96% 0.0 mm 0 W/m2
03:49 1.8 °C 1.2 °C 1024.3 hPa NNW 6.1 km/h 11.1 km/h 96% 0.0 mm 0 W/m2
03:54 1.7 °C 1.1 °C 1024.3 hPa NW 6.1 km/h 11.1 km/h 96% 0.0 mm 0 W/m2
03:59 1.7 °C 1.1 °C 1024.3 hPa NW 5.0 km/h 9.7 km/h 96% 0.0 mm 0 W/m2
04:04 1.7 °C 1.1 °C 1024.3 hPa NW 5.0 km/h 9.7 km/h 96% 0.0 mm 0 W/m2
04:09 1.7 °C 1.1 °C 1024.3 hPa NW 6.1 km/h 9.7 km/h 96% 0.0 mm 0 W/m2
04:14 1.6 °C 1.1 °C 1024.3 hPa NW 3.5 km/h 9.7 km/h 96% 0.0 mm 0 W/m2
04:19 1.6 °C 1.1 °C 1024.3 hPa WNW 6.1 km/h 11.1 km/h 96% 0.0 mm 0 W/m2
04:24 1.7 °C 1.1 °C 1024.3 hPa NW 5.0 km/h 12.2 km/h 96% 0.0 mm 0 W/m2
04:29 1.6 °C 1.1 °C 1024.3 hPa NNW 6.1 km/h 12.2 km/h 96% 0.0 mm 0 W/m2
04:34 1.6 °C 1.1 °C 1024.3 hPa NW 6.1 km/h 9.7 km/h 96% 0.0 mm 0 W/m2
04:39 1.6 °C 1.1 °C 1024.3 hPa NW 5.0 km/h 9.7 km/h 96% 0.0 mm 0 W/m2
04:44 1.6 °C 1.1 °C 1024.3 hPa NNW 3.5 km/h 9.7 km/h 96% 0.0 mm 0 W/m2
04:49 1.5 °C 0.9 °C 1023.9 hPa NNW 3.5 km/h 9.7 km/h 96% 0.0 mm 0 W/m2
04:54 1.4 °C 0.8 °C 1024.3 hPa NNW 5.0 km/h 7.2 km/h 96% 0.0 mm 0 W/m2
04:59 1.4 °C 0.8 °C 1023.9 hPa NW 6.1 km/h 9.7 km/h 96% 0.0 mm 0 W/m2
05:04 1.3 °C 0.6 °C 1024.3 hPa NW 3.5 km/h 9.7 km/h 95% 0.0 mm 0 W/m2
05:09 1.3 °C 0.6 °C 1024.3 hPa NW 3.5 km/h 9.7 km/h 95% 0.0 mm 0 W/m2
05:14 1.2 °C 0.5 °C 1023.9 hPa NNW 5.0 km/h 9.7 km/h 95% 0.0 mm 0 W/m2
05:19 1.2 °C 0.5 °C 1023.9 hPa NNW 3.5 km/h 9.7 km/h 95% 0.0 mm 0 W/m2
05:24 1.1 °C 0.4 °C 1023.9 hPa NNW 3.5 km/h 8.7 km/h 95% 0.0 mm 0 W/m2
05:29 1.0 °C 0.3 °C 1023.9 hPa NNW 5.0 km/h 8.7 km/h 95% 0.0 mm 0 W/m2
05:34 1.0 °C 0.3 °C 1023.9 hPa NNW 3.5 km/h 8.7 km/h 95% 0.0 mm 0 W/m2
05:39 0.9 °C 0.3 °C 1023.9 hPa NNW 3.5 km/h 8.7 km/h 96% 0.0 mm 0 W/m2
06:00 0.9 °C 0.3 °C 1023.6 hPa NNW 2.6 km/h 7.2 km/h 96% 0.0 mm 0 W/m2
06:05 0.8 °C 0.2 °C 1023.6 hPa NNW 2.6 km/h 6.1 km/h 96% 0.0 mm 0 W/m2
06:10 0.8 °C 0.2 °C 1023.6 hPa NNW 3.5 km/h 7.2 km/h 96% 0.0 mm 0 W/m2
06:15 0.7 °C 0.2 °C 1023.2 hPa NNW 5.0 km/h 7.2 km/h 96% 0.0 mm 0 W/m2
06:20 0.6 °C 0.1 °C 1023.6 hPa NNW 3.5 km/h 8.7 km/h 96% 0.0 mm 0 W/m2
06:25 0.6 °C 0.1 °C 1023.2 hPa NNW 3.5 km/h 8.7 km/h 96% 0.0 mm 0 W/m2
06:28 0.6 °C 0.1 °C 1023.2 hPa NNW 3.5 km/h 8.7 km/h 96% 0.0 mm 0 W/m2
06:33 0.5 °C -0.1 °C 1023.2 hPa NNW 3.5 km/h 7.2 km/h 96% 0.0 mm 0 W/m2
06:38 0.5 °C -0.1 °C 1023.2 hPa NNW 3.5 km/h 7.2 km/h 96% 0.0 mm 0 W/m2
06:40 0.5 °C -0.1 °C 1023.2 hPa NNW 5.0 km/h 7.2 km/h 96% 0.0 mm 0 W/m2
06:46 0.6 °C 0.2 °C 1023.2 hPa NNW 3.5 km/h 7.2 km/h 97% 0.0 mm 0 W/m2
06:51 0.6 °C 0.2 °C 1023.2 hPa NNW 6.1 km/h 8.7 km/h 97% 0.0 mm 0 W/m2
06:56 0.6 °C 0.2 °C 1023.2 hPa NNW 6.1 km/h 9.7 km/h 97% 0.0 mm 0 W/m2
07:01 0.6 °C 0.2 °C 1023.2 hPa NNW 5.0 km/h 9.7 km/h 97% 0.0 mm 0 W/m2
07:06 0.6 °C 0.2 °C 1023.2 hPa North 6.1 km/h 11.1 km/h 97% 0.0 mm 1 W/m2
07:11 0.6 °C 0.2 °C 1023.2 hPa North 5.0 km/h 11.1 km/h 97% 0.0 mm 4 W/m2
07:16 0.6 °C 0.2 °C 1023.2 hPa North 2.6 km/h 9.7 km/h 97% 0.0 mm 7 W/m2
07:21 0.7 °C 0.3 °C 1023.2 hPa North 6.1 km/h 8.7 km/h 97% 0.0 mm 11 W/m2
07:26 0.8 °C 0.4 °C 1023.2 hPa NW 6.1 km/h 9.7 km/h 97% 0.0 mm 14 W/m2
07:31 1.0 °C 0.6 °C 1023.2 hPa NNW 6.1 km/h 9.7 km/h 97% 0.0 mm 45 W/m2
07:36 1.2 °C 0.8 °C 1023.2 hPa NNW 6.1 km/h 9.7 km/h 97% 0.0 mm 61 W/m2
07:41 1.4 °C 1.0 °C 1022.9 hPa NNW 7.2 km/h 9.7 km/h 97% 0.0 mm 76 W/m2
07:46 1.6 °C 1.2 °C 1022.9 hPa NNW 5.0 km/h 9.7 km/h 97% 0.0 mm 90 W/m2
07:51 1.8 °C 1.2 °C 1022.9 hPa NNW 7.2 km/h 9.7 km/h 96% 0.0 mm 103 W/m2
07:56 2.0 °C 1.3 °C 1022.6 hPa NNW 6.1 km/h 11.1 km/h 95% 0.0 mm 116 W/m2
08:01 2.2 °C 1.3 °C 1022.9 hPa NNW 8.7 km/h 12.2 km/h 94% 0.0 mm 116 W/m2
08:06 2.3 °C 1.3 °C 1022.6 hPa NNW 8.7 km/h 12.2 km/h 93% 0.0 mm 60 W/m2
08:11 2.1 °C 0.9 °C 1022.6 hPa NNW 7.2 km/h 12.2 km/h 92% 0.0 mm 47 W/m2
08:16 2.0 °C 0.7 °C 1022.6 hPa NW 6.1 km/h 12.2 km/h 91% 0.0 mm 87 W/m2
08:21 2.3 °C 1.0 °C 1022.6 hPa NNW 5.0 km/h 9.7 km/h 91% 0.0 mm 127 W/m2
08:26 2.8 °C 1.5 °C 1022.6 hPa NNW 7.2 km/h 9.7 km/h 91% 0.0 mm 166 W/m2
08:31 3.2 °C 2.3 °C 1022.6 hPa NNW 6.1 km/h 11.1 km/h 94% 0.0 mm 169 W/m2
08:36 3.6 °C 2.4 °C 1022.6 hPa NW 7.2 km/h 12.2 km/h 92% 0.0 mm 180 W/m2
08:41 3.9 °C 2.4 °C 1022.6 hPa NNW 6.1 km/h 12.2 km/h 90% 0.0 mm 194 W/m2
08:46 4.2 °C 2.2 °C 1022.2 hPa NNW 8.7 km/h 15.8 km/h 87% 0.0 mm 181 W/m2
08:51 4.3 °C 2.2 °C 1022.2 hPa NNW 6.1 km/h 17.2 km/h 86% 0.0 mm 147 W/m2
08:56 4.4 °C 2.1 °C 1022.2 hPa NNW 6.1 km/h 17.2 km/h 85% 0.0 mm 202 W/m2
09:01 4.5 °C 2.2 °C 1022.2 hPa NW 9.7 km/h 13.4 km/h 85% 0.0 mm 140 W/m2
09:06 4.6 °C 2.1 °C 1022.2 hPa NW 5.0 km/h 13.4 km/h 84% 0.0 mm 136 W/m2
09:11 4.7 °C 2.2 °C 1022.2 hPa NNW 6.1 km/h 12.2 km/h 84% 0.0 mm 194 W/m2
09:16 5.0 °C 2.3 °C 1022.2 hPa NW 5.0 km/h 11.1 km/h 83% 0.0 mm 218 W/m2
09:21 5.5 °C 2.8 °C 1022.2 hPa NW 6.1 km/h 11.1 km/h 83% 0.0 mm 241 W/m2
09:26 6.2 °C 3.3 °C 1022.2 hPa NNW 5.0 km/h 11.1 km/h 82% 0.0 mm 156 W/m2
09:31 6.6 °C 3.2 °C 1022.2 hPa NNW 5.0 km/h 7.2 km/h 79% 0.0 mm 109 W/m2
09:36 7.0 °C 3.2 °C 1022.2 hPa NNW 2.6 km/h 7.2 km/h 77% 0.0 mm 102 W/m2
09:41 7.5 °C 3.7 °C 1022.2 hPa NW 5.0 km/h 8.7 km/h 77% 0.0 mm 96 W/m2
09:46 7.7 °C 3.7 °C 1022.2 hPa NW 5.0 km/h 11.1 km/h 76% 0.0 mm 92 W/m2
09:51 7.7 °C 3.6 °C 1022.2 hPa NW 12.2 km/h 18.3 km/h 75% 0.0 mm 85 W/m2
09:56 7.5 °C 3.2 °C 1022.2 hPa NNW 6.1 km/h 18.3 km/h 74% 0.0 mm 80 W/m2
10:15 9.3 °C 4.7 °C 1022.2 hPa NNW 7.2 km/h 9.7 km/h 73% 0.0 mm 75 W/m2
10:20 9.7 °C 5.3 °C 1022.2 hPa NNW 3.5 km/h 9.7 km/h 74% 0.0 mm 80 W/m2
10:21 9.8 °C 5.2 °C 1022.2 hPa NNW 5.0 km/h 9.7 km/h 73% 0.0 mm 81 W/m2
10:26 10.3 °C 5.3 °C 1022.2 hPa NNW 3.5 km/h 8.7 km/h 71% 0.0 mm 85 W/m2
10:31 11.2 °C 5.7 °C 1022.2 hPa NW 1.1 km/h 8.7 km/h 69% 0.0 mm 103 W/m2
10:36 12.0 °C 6.1 °C 1021.9 hPa NW 2.6 km/h 6.1 km/h 67% 0.0 mm 110 W/m2
10:41 12.1 °C 5.9 °C 1022.2 hPa NNW 1.1 km/h 5.0 km/h 66% 0.0 mm 101 W/m2
10:46 12.2 °C 5.8 °C 1021.9 hPa NNW 2.6 km/h 5.0 km/h 65% 0.0 mm 93 W/m2
10:51 12.7 °C 6.5 °C 1021.9 hPa NW 2.6 km/h 5.0 km/h 66% 0.0 mm 97 W/m2
10:56 13.0 °C 6.8 °C 1022.2 hPa NW 2.6 km/h 6.1 km/h 66% 0.0 mm 134 W/m2
11:01 13.4 °C 6.9 °C 1022.2 hPa NNW 1.1 km/h 6.1 km/h 65% 0.0 mm 186 W/m2
11:06 14.3 °C 7.6 °C 1022.2 hPa North 3.5 km/h 6.1 km/h 64% 0.0 mm 135 W/m2
11:11 14.1 °C 7.4 °C 1021.9 hPa North 5.0 km/h 7.2 km/h 64% 0.0 mm 188 W/m2
11:16 14.3 °C 7.6 °C 1021.6 hPa NNW 3.5 km/h 8.7 km/h 64% 0.0 mm 211 W/m2
11:21 14.9 °C 7.4 °C 1021.6 hPa NNW 5.0 km/h 9.7 km/h 61% 0.0 mm 208 W/m2
11:26 15.0 °C 6.6 °C 1021.6 hPa North 5.0 km/h 11.1 km/h 57% 0.0 mm 165 W/m2
11:31 14.6 °C 6.2 °C 1021.6 hPa NNW 6.1 km/h 11.1 km/h 57% 0.0 mm 214 W/m2
11:36 15.4 °C 6.9 °C 1021.2 hPa NNW 2.6 km/h 9.7 km/h 57% 0.0 mm 216 W/m2
11:41 15.9 °C 6.6 °C 1021.2 hPa NNW 5.0 km/h 9.7 km/h 54% 0.0 mm 184 W/m2
11:46 15.6 °C 6.6 °C 1020.9 hPa Calm   9.7 km/h 55% 0.0 mm 173 W/m2
11:51 15.4 °C 6.2 °C 1020.9 hPa North 5.0 km/h 11.1 km/h 54% 0.0 mm 188 W/m2
11:56 15.2 °C 6.2 °C 1020.9 hPa North 2.6 km/h 11.1 km/h 55% 0.0 mm 197 W/m2
12:01 15.4 °C 6.7 °C 1020.5 hPa North 1.1 km/h 9.7 km/h 56% 0.0 mm 181 W/m2
12:06 15.5 °C 6.5 °C 1020.5 hPa NNW 6.1 km/h 11.1 km/h 55% 0.0 mm 169 W/m2
12:11 15.4 °C 6.7 °C 1020.5 hPa NNW 3.5 km/h 12.2 km/h 56% 0.0 mm 157 W/m2
12:16 15.8 °C 7.3 °C 1020.2 hPa NNW 5.0 km/h 12.2 km/h 57% 0.0 mm 147 W/m2
12:21 16.5 °C 7.7 °C 1020.2 hPa NNW 5.0 km/h 9.7 km/h 56% 0.0 mm 147 W/m2
12:26 16.7 °C 7.3 °C 1020.2 hPa NNW 5.0 km/h 8.7 km/h 54% 0.0 mm 141 W/m2
12:31 17.3 °C 7.3 °C 1019.9 hPa NNW 6.1 km/h 8.7 km/h 52% 0.0 mm 135 W/m2
12:36 17.8 °C 7.6 °C 1019.9 hPa NNW 5.0 km/h 8.7 km/h 51% 0.0 mm 145 W/m2
12:41 18.3 °C 6.8 °C 1019.5 hPa North 3.5 km/h 8.7 km/h 47% 0.0 mm 153 W/m2
12:46 18.8 °C 7.3 °C 1019.5 hPa NNE 6.1 km/h 8.7 km/h 47% 0.0 mm 157 W/m2
12:51 18.9 °C 7.3 °C 1019.5 hPa NNE 5.0 km/h 8.7 km/h 47% 0.0 mm 145 W/m2
12:56 19.4 °C 7.8 °C 1019.2 hPa NNE 7.2 km/h 8.7 km/h 47% 0.0 mm 123 W/m2
13:01 19.9 °C 7.6 °C 1019.2 hPa North 8.7 km/h 14.8 km/h 45% 0.0 mm 104 W/m2
13:06 18.6 °C 6.1 °C 1019.2 hPa NNW 7.2 km/h 19.5 km/h 44% 0.0 mm 97 W/m2
13:11 18.0 °C 5.9 °C 1019.2 hPa NW 9.7 km/h 24.5 km/h 45% 0.0 mm 98 W/m2
13:16 17.8 °C 5.4 °C 1019.2 hPa NW 11.1 km/h 24.5 km/h 44% 0.0 mm 107 W/m2
13:21 17.5 °C 5.1 °C 1019.2 hPa NW 6.1 km/h 19.5 km/h 44% 0.0 mm 114 W/m2
13:26 17.1 °C 4.8 °C 1018.8 hPa NW 9.7 km/h 18.3 km/h 44% 0.0 mm 122 W/m2
13:31 16.7 °C 5.1 °C 1018.8 hPa NW 13.4 km/h 19.5 km/h 46% 0.0 mm 121 W/m2
13:36 16.6 °C 5.6 °C 1018.8 hPa NW 13.4 km/h 27.0 km/h 48% 0.0 mm 121 W/m2
13:41 16.4 °C 5.1 °C 1018.8 hPa NW 9.7 km/h 27.0 km/h 47% 0.0 mm 125 W/m2
13:46 16.4 °C 5.9 °C 1018.8 hPa NW 7.2 km/h 20.9 km/h 50% 0.0 mm 128 W/m2
13:51 16.3 °C 5.9 °C 1018.8 hPa NW 8.7 km/h 15.8 km/h 50% 0.0 mm 135 W/m2
13:56 16.1 °C 5.4 °C 1018.5 hPa NW 6.1 km/h 18.3 km/h 49% 0.0 mm 143 W/m2
14:01 16.2 °C 6.1 °C 1018.5 hPa NW 6.1 km/h 18.3 km/h 51% 0.0 mm 149 W/m2
14:06 16.4 °C 5.9 °C 1018.5 hPa NW 12.2 km/h 15.8 km/h 50% 0.0 mm 144 W/m2
14:11 16.2 °C 5.8 °C 1018.5 hPa NW 5.0 km/h 15.8 km/h 50% 0.0 mm 132 W/m2
14:16 16.2 °C 6.1 °C 1018.5 hPa NW 9.7 km/h 13.4 km/h 51% 0.0 mm 117 W/m2
14:21 16.0 °C 5.9 °C 1018.5 hPa NW 7.2 km/h 13.4 km/h 51% 0.0 mm 103 W/m2
14:26 15.8 °C 6.2 °C 1018.5 hPa NW 5.0 km/h 13.4 km/h 53% 0.0 mm 97 W/m2
14:31 15.6 °C 6.3 °C 1018.8 hPa NW 5.0 km/h 11.1 km/h 54% 0.0 mm 91 W/m2
14:36 15.5 °C 6.2 °C 1018.8 hPa NNW 5.0 km/h 11.1 km/h 54% 0.0 mm 90 W/m2
14:41 15.4 °C 6.2 °C 1018.8 hPa NNW 7.2 km/h 11.1 km/h 54% 0.0 mm 91 W/m2
14:46 15.2 °C 5.9 °C 1018.5 hPa NNW 5.0 km/h 11.1 km/h 54% 0.0 mm 88 W/m2
14:51 15.1 °C 6.1 °C 1018.5 hPa NNW 7.2 km/h 11.1 km/h 55% 0.0 mm 90 W/m2
14:54 15.0 °C 6.1 °C 1018.5 hPa NNW 8.7 km/h 13.4 km/h 55% 0.0 mm 89 W/m2
14:59 15.0 °C 6.1 °C 1018.8 hPa NNW 8.7 km/h 13.4 km/h 55% 0.0 mm 79 W/m2
15:04 14.9 °C 6.2 °C 1018.8 hPa North 7.2 km/h 14.8 km/h 56% 0.0 mm 74 W/m2
15:09 14.8 °C 6.1 °C 1018.5 hPa NNW 8.7 km/h 17.2 km/h 56% 0.0 mm 79 W/m2
15:14 14.7 °C 6.3 °C 1018.8 hPa NNW 8.7 km/h 19.5 km/h 57% 0.0 mm 86 W/m2
15:19 14.6 °C 6.4 °C 1018.5 hPa North 7.2 km/h 19.5 km/h 58% 0.0 mm 85 W/m2
15:24 14.4 °C 6.2 °C 1018.5 hPa NNW 8.7 km/h 14.8 km/h 58% 0.0 mm 77 W/m2
15:29 14.3 °C 6.2 °C 1018.2 hPa NNW 9.7 km/h 15.8 km/h 58% 0.0 mm 75 W/m2
15:34 14.3 °C 6.2 °C 1018.5 hPa NNW 9.7 km/h 15.8 km/h 58% 0.0 mm 95 W/m2
15:38 14.5 °C 6.6 °C 1018.2 hPa North 7.2 km/h 13.4 km/h 59% 0.0 mm 94 W/m2
15:43 14.7 °C 6.5 °C 1018.5 hPa North 5.0 km/h 15.8 km/h 58% 0.0 mm 62 W/m2
15:48 14.4 °C 6.2 °C 1018.2 hPa North 9.7 km/h 15.8 km/h 58% 0.0 mm 57 W/m2
15:53 14.2 °C 6.3 °C 1018.2 hPa North 11.1 km/h 17.2 km/h 59% 0.0 mm 61 W/m2
15:58 14.1 °C 6.2 °C 1018.5 hPa North 7.2 km/h 17.2 km/h 59% 0.0 mm 41 W/m2
16:03 13.9 °C 6.5 °C 1018.2 hPa North 7.2 km/h 15.8 km/h 61% 0.0 mm 33 W/m2
16:08 13.7 °C 6.6 °C 1018.5 hPa North 11.1 km/h 17.2 km/h 62% 0.0 mm 25 W/m2
16:13 13.5 °C 6.8 °C 1018.2 hPa North 6.1 km/h 17.2 km/h 64% 0.0 mm 18 W/m2
16:18 13.3 °C 6.6 °C 1018.2 hPa North 7.2 km/h 15.8 km/h 64% 0.0 mm 16 W/m2
16:23 13.2 °C 6.8 °C 1018.2 hPa NNW 8.7 km/h 14.8 km/h 65% 0.0 mm 13 W/m2
16:28 13.1 °C 6.7 °C 1018.5 hPa NNW 11.1 km/h 15.8 km/h 65% 0.0 mm 12 W/m2
16:33 13.0 °C 6.8 °C 1018.2 hPa NNW 8.7 km/h 15.8 km/h 66% 0.0 mm 10 W/m2
16:38 12.9 °C 6.7 °C 1018.2 hPa NNW 7.2 km/h 15.8 km/h 66% 0.0 mm 6 W/m2
16:43 12.8 °C 6.6 °C 1018.2 hPa NNW 8.7 km/h 13.4 km/h 66% 0.0 mm 4 W/m2
16:48 12.7 °C 6.7 °C 1018.2 hPa NNW 11.1 km/h 18.3 km/h 67% 0.0 mm 3 W/m2
16:53 12.7 °C 6.7 °C 1018.2 hPa NNW 14.8 km/h 19.5 km/h 67% 0.0 mm 1 W/m2
16:58 12.7 °C 6.7 °C 1018.2 hPa NNW 11.1 km/h 21.9 km/h 67% 0.0 mm 0 W/m2
17:03 12.6 °C 6.6 °C 1018.2 hPa NNW 9.7 km/h 21.9 km/h 67% 0.0 mm 0 W/m2
17:08 12.5 °C 6.6 °C 1018.5 hPa North 6.1 km/h 15.8 km/h 67% 0.0 mm 0 W/m2
17:13 12.5 °C 6.8 °C 1018.5 hPa NNW 5.0 km/h 15.8 km/h 68% 0.0 mm 0 W/m2
17:18 12.4 °C 6.9 °C 1018.2 hPa NNW 11.1 km/h 20.9 km/h 69% 0.0 mm 0 W/m2
17:23 12.4 °C 6.9 °C 1018.2 hPa NNW 7.2 km/h 20.9 km/h 69% 0.0 mm 0 W/m2
17:28 12.3 °C 7.0 °C 1018.2 hPa NNW 7.2 km/h 18.3 km/h 70% 0.0 mm 0 W/m2
17:33 12.2 °C 6.9 °C 1018.2 hPa North 5.0 km/h 13.4 km/h 70% 0.0 mm 0 W/m2
17:38 12.1 °C 7.0 °C 1018.5 hPa North 6.1 km/h 11.1 km/h 71% 0.0 mm 0 W/m2
17:43 12.1 °C 7.0 °C 1018.5 hPa North 5.0 km/h 12.2 km/h 71% 0.0 mm 0 W/m2
17:48 12.1 °C 7.0 °C 1018.5 hPa North 7.2 km/h 12.2 km/h 71% 0.0 mm 0 W/m2
17:53 12.0 °C 6.9 °C 1018.5 hPa NNW 6.1 km/h 12.2 km/h 71% 0.0 mm 0 W/m2
17:58 12.0 °C 6.9 °C 1018.5 hPa NNW 8.7 km/h 12.2 km/h 71% 0.0 mm 0 W/m2
18:03 12.1 °C 7.0 °C 1018.5 hPa NNW 6.1 km/h 12.2 km/h 71% 0.0 mm 0 W/m2
18:08 12.1 °C 7.0 °C 1018.8 hPa NNW 6.1 km/h 12.2 km/h 71% 0.0 mm 0 W/m2
18:13 12.1 °C 7.0 °C 1018.8 hPa NNW 5.0 km/h 12.2 km/h 71% 0.0 mm 0 W/m2
18:18 12.1 °C 7.0 °C 1018.5 hPa NNW 6.1 km/h 12.2 km/h 71% 0.0 mm 0 W/m2
18:23 12.2 °C 7.1 °C 1018.8 hPa North 7.2 km/h 12.2 km/h 71% 0.0 mm 0 W/m2
18:28 12.2 °C 7.1 °C 1018.8 hPa NNW 5.0 km/h 12.2 km/h 71% 0.0 mm 0 W/m2
18:33 12.2 °C 7.1 °C 1018.8 hPa North 8.7 km/h 11.1 km/h 71% 0.0 mm 0 W/m2
18:38 12.1 °C 7.0 °C 1018.5 hPa NNW 5.0 km/h 12.2 km/h 71% 0.0 mm 0 W/m2
18:43 12.1 °C 7.0 °C 1018.8 hPa NW 9.7 km/h 17.2 km/h 71% 0.0 mm 0 W/m2
18:48 11.9 °C 7.0 °C 1018.8 hPa NW 7.2 km/h 17.2 km/h 72% 0.0 mm 0 W/m2
18:54 11.8 °C 7.1 °C 1018.8 hPa NNW 7.2 km/h 14.8 km/h 73% 0.0 mm 0 W/m2
18:59 11.9 °C 7.2 °C 1018.8 hPa North 6.1 km/h 14.8 km/h 73% 0.0 mm 0 W/m2
19:04 11.9 °C 7.2 °C 1018.8 hPa North 7.2 km/h 13.4 km/h 73% 0.0 mm 0 W/m2
19:09 11.9 °C 7.2 °C 1018.8 hPa NNW 8.7 km/h 12.2 km/h 73% 0.0 mm 0 W/m2
19:14 11.8 °C 7.1 °C 1018.8 hPa North 8.7 km/h 13.4 km/h 73% 0.0 mm 0 W/m2
19:19 11.8 °C 7.1 °C 1018.8 hPa NNW 8.7 km/h 14.8 km/h 73% 0.0 mm 0 W/m2
19:24 11.9 °C 7.2 °C 1018.8 hPa NNW 12.2 km/h 15.8 km/h 73% 0.0 mm 0 W/m2
19:29 11.9 °C 7.2 °C 1018.8 hPa NNW 12.2 km/h 15.8 km/h 73% 0.0 mm 0 W/m2
19:34 12.0 °C 7.1 °C 1018.8 hPa NNW 7.2 km/h 15.8 km/h 72% 0.0 mm 0 W/m2
19:39 11.9 °C 7.2 °C 1018.8 hPa NNW 3.5 km/h 14.8 km/h 73% 0.0 mm 0 W/m2
19:44 11.8 °C 7.1 °C 1018.8 hPa NNW 2.6 km/h 13.4 km/h 73% 0.0 mm 0 W/m2
19:49 11.7 °C 7.0 °C 1018.8 hPa North 5.0 km/h 8.7 km/h 73% 0.0 mm 0 W/m2
19:54 11.7 °C 7.2 °C 1018.8 hPa NNE 9.7 km/h 12.2 km/h 74% 0.0 mm 0 W/m2
19:59 11.6 °C 7.1 °C 1018.8 hPa NNE 7.2 km/h 13.4 km/h 74% 0.0 mm 0 W/m2
20:04 11.6 °C 7.1 °C 1018.5 hPa North 11.1 km/h 14.8 km/h 74% 0.0 mm 0 W/m2
20:09 11.7 °C 7.2 °C 1018.8 hPa NNW 6.1 km/h 14.8 km/h 74% 0.0 mm 0 W/m2
20:14 11.8 °C 7.3 °C 1018.5 hPa NNW 6.1 km/h 14.8 km/h 74% 0.0 mm 0 W/m2
20:19 11.8 °C 7.1 °C 1018.5 hPa NNW 7.2 km/h 13.4 km/h 73% 0.0 mm 0 W/m2
20:24 11.8 °C 7.3 °C 1018.5 hPa North 9.7 km/h 14.8 km/h 74% 0.0 mm 0 W/m2
20:29 11.9 °C 7.2 °C 1018.5 hPa North 8.7 km/h 15.8 km/h 73% 0.0 mm 0 W/m2
20:34 12.0 °C 6.9 °C 1018.8 hPa NNE 8.7 km/h 15.8 km/h 71% 0.0 mm 0 W/m2
20:39 12.2 °C 7.1 °C 1018.8 hPa North 7.2 km/h 13.4 km/h 71% 0.0 mm 0 W/m2
20:44 12.2 °C 6.9 °C 1018.5 hPa North 8.7 km/h 12.2 km/h 70% 0.0 mm 0 W/m2
20:49 12.2 °C 6.9 °C 1018.5 hPa North 6.1 km/h 11.1 km/h 70% 0.0 mm 0 W/m2
20:54 12.2 °C 6.9 °C 1018.5 hPa North 7.2 km/h 11.1 km/h 70% 0.0 mm 0 W/m2
20:59 12.4 °C 6.9 °C 1018.5 hPa North 6.1 km/h 12.2 km/h 69% 0.0 mm 0 W/m2
21:04 12.3 °C 6.8 °C 1018.5 hPa NNE 5.0 km/h 12.2 km/h 69% 0.0 mm 0 W/m2
21:09 12.3 °C 7.0 °C 1018.2 hPa North 9.7 km/h 14.8 km/h 70% 0.0 mm 0 W/m2
21:14 12.4 °C 6.9 °C 1018.2 hPa NNW 6.1 km/h 15.8 km/h 69% 0.0 mm 0 W/m2
21:19 12.7 °C 6.9 °C 1018.2 hPa NNW 9.7 km/h 19.5 km/h 68% 0.0 mm 0 W/m2
21:24 12.8 °C 7.1 °C 1018.2 hPa NNW 9.7 km/h 21.9 km/h 68% 0.0 mm 0 W/m2
21:29 12.9 °C 6.9 °C 1018.2 hPa NNW 7.2 km/h 21.9 km/h 67% 0.0 mm 0 W/m2
21:34 13.0 °C 7.0 °C 1018.2 hPa North 6.1 km/h 17.2 km/h 67% 0.0 mm 0 W/m2
21:39 12.9 °C 6.9 °C 1018.2 hPa North 5.0 km/h 13.4 km/h 67% 0.0 mm 0 W/m2
21:44 12.8 °C 6.8 °C 1018.5 hPa NNW 5.0 km/h 11.1 km/h 67% 0.0 mm 0 W/m2
21:49 12.5 °C 6.8 °C 1018.2 hPa NNW 5.0 km/h 8.7 km/h 68% 0.0 mm 0 W/m2
21:54 12.2 °C 6.9 °C 1018.2 hPa NW 5.0 km/h 7.2 km/h 70% 0.0 mm 0 W/m2
21:59 11.9 °C 7.0 °C 1018.5 hPa NW 6.1 km/h 9.7 km/h 72% 0.0 mm 0 W/m2
22:04 11.8 °C 6.9 °C 1018.2 hPa NNW 6.1 km/h 13.4 km/h 72% 0.0 mm 0 W/m2
22:09 11.6 °C 6.9 °C 1018.5 hPa NNW 1.1 km/h 13.4 km/h 73% 0.0 mm 0 W/m2
22:14 11.4 °C 6.7 °C 1018.2 hPa NNW 5.0 km/h 9.7 km/h 73% 0.0 mm 0 W/m2
22:19 11.3 °C 6.7 °C 1018.5 hPa Calm   9.7 km/h 73% 0.0 mm 0 W/m2
22:24 11.1 °C 6.4 °C 1018.2 hPa NNW 3.5 km/h 9.7 km/h 73% 0.0 mm 0 W/m2
22:29 11.0 °C 6.6 °C 1018.5 hPa North 6.1 km/h 8.7 km/h 74% 0.0 mm 0 W/m2
22:34 10.9 °C 6.8 °C 1018.5 hPa NNW 5.0 km/h 8.7 km/h 76% 0.0 mm 0 W/m2
22:40 10.8 °C 6.7 °C 1018.2 hPa NNW 7.2 km/h 15.8 km/h 76% 0.0 mm 0 W/m2
22:45 10.7 °C 6.8 °C 1018.5 hPa NNW 5.0 km/h 15.8 km/h 77% 0.0 mm 0 W/m2
22:50 10.7 °C 6.8 °C 1018.5 hPa North 6.1 km/h 11.1 km/h 77% 0.0 mm 0 W/m2
22:55 10.7 °C 6.8 °C 1018.2 hPa North 7.2 km/h 12.2 km/h 77% 0.0 mm 0 W/m2
23:00 10.8 °C 6.9 °C 1018.2 hPa NNW 9.7 km/h 14.8 km/h 77% 0.0 mm 0 W/m2
23:05 10.9 °C 6.8 °C 1018.5 hPa NNW 8.7 km/h 15.8 km/h 76% 0.0 mm 0 W/m2
23:10 11.1 °C 6.8 °C 1018.5 hPa North 7.2 km/h 15.8 km/h 75% 0.0 mm 0 W/m2
23:16 11.1 °C 6.8 °C 1018.2 hPa North 8.7 km/h 13.4 km/h 75% 0.0 mm 0 W/m2
23:21 11.1 °C 6.7 °C 1018.2 hPa North 6.1 km/h 17.2 km/h 74% 0.0 mm 0 W/m2
23:26 11.0 °C 6.7 °C 1018.5 hPa North 8.7 km/h 17.2 km/h 75% 0.0 mm 0 W/m2
23:31 10.9 °C 6.8 °C 1018.2 hPa North 6.1 km/h 15.8 km/h 76% 0.0 mm 0 W/m2
23:36 10.8 °C 6.7 °C 1018.5 hPa North 6.1 km/h 13.4 km/h 76% 0.0 mm 0 W/m2
23:41 10.7 °C 6.7 °C 1018.5 hPa North 6.1 km/h 13.4 km/h 76% 0.0 mm 0 W/m2
23:46 10.6 °C 6.7 °C 1018.5 hPa North 6.1 km/h 13.4 km/h 77% 0.0 mm 0 W/m2
23:51 10.8 °C 6.9 °C 1018.5 hPa North 7.2 km/h 13.4 km/h 77% 0.0 mm 0 W/m2
23:56 10.9 °C 6.8 °C 1018.2 hPa North 8.7 km/h 13.4 km/h 76% 0.0 mm 0 W/m2
Northern Hawkes Bay. New Zealand Historic Data
Compliments of Weather Underground - 2 mb